Time;durP1;ratioP1;P1;durP2;ratioP2;P2;SDS_P1;SDS_P2;PMS_P1;PMS_P2;Temp;Humidity;BMP_temperature;BMP_pressure;BME280_temperature;BME280_humidity;BME280_pressure;Samples;Min_cycle;Max_cycle;Signal;HPM_P1;HPM_P2
2020/12/19 00:00:07;;;;;;;110.00;49.13;;;;;;;-0.60;76.05;98223.69;1777113;80;28493;-84
2020/12/19 00:02:37;;;;;;;91.70;41.53;;;;;;;-0.58;76.06;98227.06;1776966;80;25714;-83
2020/12/19 00:05:05;;;;;;;78.65;36.33;;;;;;;-0.58;76.00;98227.55;1754165;80;25773;-84
2020/12/19 00:07:34;;;;;;;69.85;33.80;;;;;;;-0.63;75.99;98219.13;1742722;80;25931;-85
2020/12/19 00:10:03;;;;;;;74.05;33.50;;;;;;;-0.66;76.09;98230.81;1776952;80;25755;-85
2020/12/19 00:12:31;;;;;;;70.08;31.25;;;;;;;-0.67;76.07;98231.78;1773731;80;27545;-85
2020/12/19 00:14:58;;;;;;;69.00;32.15;;;;;;;-0.68;76.11;98226.11;1775426;80;26308;-84
2020/12/19 00:17:26;;;;;;;70.03;31.60;;;;;;;-0.66;76.12;98222.02;1776372;80;26380;-83
2020/12/19 00:19:53;;;;;;;85.17;39.00;;;;;;;-0.68;76.05;98226.59;1754211;80;25831;-85
2020/12/19 00:22:21;;;;;;;100.87;43.15;;;;;;;-0.70;76.09;98229.36;1754221;80;26008;-85
2020/12/19 00:24:49;;;;;;;107.87;44.77;;;;;;;-0.67;76.16;98233.10;1770720;80;28429;-85
2020/12/19 00:27:17;;;;;;;84.25;36.90;;;;;;;-0.69;76.17;98225.75;1758837;80;25282;-85
2020/12/19 00:29:45;;;;;;;62.90;29.67;;;;;;;-0.78;76.20;98231.78;1768430;80;25737;-83
2020/12/19 00:32:13;;;;;;;62.40;28.42;;;;;;;-0.84;76.27;98233.09;1783025;80;25911;-84
2020/12/19 00:34:40;;;;;;;54.20;24.77;;;;;;;-0.89;76.32;98223.83;1766252;80;25768;-86
2020/12/19 00:37:07;;;;;;;61.20;28.00;;;;;;;-0.89;76.39;98231.78;1772539;80;28459;-83
2020/12/19 00:39:35;;;;;;;63.25;28.52;;;;;;;-0.86;76.47;98234.20;1767091;80;25754;-84
2020/12/19 00:42:02;;;;;;;63.10;29.10;;;;;;;-0.84;76.40;98242.85;1778388;80;25697;-83
2020/12/19 00:44:29;;;;;;;58.58;26.93;;;;;;;-0.82;76.44;98244.42;1781129;80;26296;-83
2020/12/19 00:46:57;;;;;;;60.52;27.95;;;;;;;-0.83;76.38;98245.38;1760256;80;25724;-85
2020/12/19 00:49:24;;;;;;;59.03;26.50;;;;;;;-0.83;76.53;98240.08;1780948;80;27500;-84
2020/12/19 00:51:52;;;;;;;48.38;24.20;;;;;;;-0.83;76.57;98249.84;1763201;80;26104;-84
2020/12/19 00:54:19;;;;;;;55.78;27.67;;;;;;;-0.79;76.67;98246.00;1768774;80;25775;-86
2020/12/19 00:56:46;;;;;;;56.10;26.45;;;;;;;-0.84;76.66;98237.55;1776147;80;25864;-86
2020/12/19 00:59:14;;;;;;;56.83;26.57;;;;;;;-0.80;76.75;98245.63;1754288;80;25817;-84
2020/12/19 01:01:41;;;;;;;78.12;37.42;;;;;;;-0.77;76.69;98248.05;1778105;80;26266;-86
2020/12/19 01:04:08;;;;;;;97.27;40.05;;;;;;;-0.85;76.47;98238.54;1785231;80;25805;-86
2020/12/19 01:06:36;;;;;;;106.67;48.23;;;;;;;-0.92;76.51;98232.02;1763907;80;25698;-85
2020/12/19 01:09:06;;;;;;;100.65;45.73;;;;;;;-0.97;76.54;98231.55;1754126;80;26726;-84
2020/12/19 01:11:36;;;;;;;101.18;44.33;;;;;;;-0.99;76.72;98232.98;1750270;80;25711;-86
2020/12/19 01:14:05;;;;;;;78.33;35.00;;;;;;;-1.02;76.85;98241.64;1777000;80;29440;-86
2020/12/19 01:16:33;;;;;;;71.17;33.23;;;;;;;-1.03;76.97;98240.80;1757417;80;25611;-87
2020/12/19 01:19:04;;;;;;;60.20;28.38;;;;;;;-1.02;77.04;98245.14;1751464;80;25820;-86
2020/12/19 01:21:33;;;;;;;67.25;30.65;;;;;;;-1.00;77.14;98246.35;1761171;80;26332;-85
2020/12/19 01:24:01;;;;;;;61.95;27.95;;;;;;;-1.01;77.12;98234.91;1771178;80;25785;-86
2020/12/19 01:26:29;;;;;;;75.47;33.25;;;;;;;-1.01;77.17;98238.88;1776948;80;28370;-85
2020/12/19 01:28:56;;;;;;;77.75;37.53;;;;;;;-1.03;77.44;98230.69;1769430;80;25774;-86
2020/12/19 01:31:24;;;;;;;77.53;34.75;;;;;;;-0.96;77.57;98243.80;1777102;80;26166;-86
2020/12/19 01:33:52;;;;;;;66.25;30.35;;;;;;;-0.95;77.46;98234.89;1776973;80;25827;-86
2020/12/19 01:36:23;;;;;;;60.45;26.60;;;;;;;-0.96;77.43;98239.83;1777010;80;25690;-85
2020/12/19 01:38:52;;;;;;;74.35;33.05;;;;;;;-0.97;77.47;98231.06;1777024;80;28487;-85
2020/12/19 01:41:21;;;;;;;51.45;25.02;;;;;;;-0.98;77.65;98228.53;1776868;80;26341;-85
2020/12/19 01:43:58;;;;;;;52.83;25.32;;;;;;;-0.90;77.89;98230.09;1777041;80;25711;-84
2020/12/19 01:46:39;;;;;;;45.23;22.07;;;;;;;-0.84;77.84;98229.59;1777099;80;25832;-84
2020/12/19 01:49:07;;;;;;;49.85;22.25;;;;;;;-0.82;77.87;98229.84;1776625;80;25682;-84
2020/12/19 01:51:35;;;;;;;54.63;25.48;;;;;;;-0.77;77.86;98231.66;1776959;80;27578;-86
2020/12/19 01:54:03;;;;;;;49.85;23.02;;;;;;;-0.76;77.89;98224.08;1744518;80;26103;-85
2020/12/19 01:56:47;;;;;;;48.10;22.22;;;;;;;-0.73;77.94;98219.02;1776900;80;25376;-85
2020/12/19 01:59:16;;;;;;;37.55;19.00;;;;;;;-0.68;77.96;98222.13;1756827;80;26305;-84
2020/12/19 02:01:56;;;;;;;36.30;18.65;;;;;;;-0.66;77.93;98216.23;1776262;80;25750;-84
2020/12/19 02:04:25;;;;;;;39.55;17.57;;;;;;;-0.63;77.91;98221.30;1777019;80;27506;-85
2020/12/19 02:06:55;;;;;;;37.20;17.92;;;;;;;-0.62;77.86;98222.14;1776939;80;26370;-84
2020/12/19 02:09:27;;;;;;;48.35;22.75;;;;;;;-0.66;77.77;98218.03;1776962;80;25723;-85
2020/12/19 02:11:54;;;;;;;49.53;23.40;;;;;;;-0.68;77.74;98219.97;1755748;80;26273;-85
2020/12/19 02:14:22;;;;;;;47.40;23.75;;;;;;;-0.72;77.87;98220.67;1790883;80;25730;-85
2020/12/19 02:17:05;;;;;;;59.27;26.55;;;;;;;-0.80;77.79;98208.52;1768704;80;27698;-85
2020/12/19 02:19:34;;;;;;;49.13;25.75;;;;;;;-0.81;77.94;98202.85;1790821;80;26349;-85
2020/12/19 02:22:04;;;;;;;40.35;19.87;;;;;;;-0.77;77.93;98205.16;1768767;80;25739;-85
2020/12/19 02:24:31;;;;;;;44.63;19.00;;;;;;;-0.85;77.86;98204.08;1790922;80;25868;-85
2020/12/19 02:27:00;;;;;;;38.13;18.62;;;;;;;-0.92;77.92;98202.37;1790961;80;25774;-86
2020/12/19 02:29:31;;;;;;;33.20;17.27;;;;;;;-0.90;77.94;98204.91;1790781;80;27485;-86
2020/12/19 02:32:01;;;;;;;34.80;16.62;;;;;;;-0.89;77.92;98205.28;1788504;80;26273;-84
2020/12/19 02:34:29;;;;;;;34.08;16.07;;;;;;;-0.88;77.89;98202.52;1772134;80;25798;-85
2020/12/19 02:36:56;;;;;;;34.18;16.70;;;;;;;-0.89;77.86;98203.47;1790194;80;26648;-85
2020/12/19 02:39:24;;;;;;;34.48;16.80;;;;;;;-0.86;77.78;98209.02;1769871;80;25787;-85
2020/12/19 02:41:51;;;;;;;34.45;17.62;;;;;;;-0.87;77.74;98212.63;1790896;80;27502;-85
2020/12/19 02:44:21;;;;;;;36.35;17.87;;;;;;;-0.87;77.69;98206.00;1790643;80;25691;-85
2020/12/19 02:46:49;;;;;;;36.63;18.23;;;;;;;-0.93;77.59;98198.52;1790767;80;25739;-85
2020/12/19 02:49:17;;;;;;;34.53;17.50;;;;;;;-0.99;77.54;98195.04;1791047;80;25880;-85
2020/12/19 02:51:45;;;;;;;38.55;18.17;;;;;;;-1.03;77.63;98195.75;1790889;80;26306;-85
2020/12/19 02:54:12;;;;;;;36.73;17.87;;;;;;;-1.01;77.68;98190.34;1790810;80;27509;-85
2020/12/19 02:56:39;;;;;;;34.45;16.82;;;;;;;-1.03;77.66;98184.31;1790680;80;25755;-85
2020/12/19 02:59:07;;;;;;;34.95;17.52;;;;;;;-1.10;77.65;98179.98;1790738;80;25787;-85
2020/12/19 03:01:34;;;;;;;31.57;17.17;;;;;;;-1.12;77.69;98183.23;1790886;80;25823;-86
2020/12/19 03:04:01;;;;;;;37.40;19.07;;;;;;;-1.11;77.71;98178.30;1790866;80;25756;-84
2020/12/19 03:06:29;;;;;;;44.08;21.33;;;;;;;-1.10;77.65;98171.55;1790761;80;27117;-85
2020/12/19 03:08:57;;;;;;;34.78;18.10;;;;;;;-1.10;77.63;98176.86;1790655;80;25769;-85
2020/12/19 03:11:24;;;;;;;46.90;21.35;;;;;;;-1.17;77.57;98172.14;1790085;80;25951;-86
2020/12/19 03:13:52;;;;;;;46.10;22.30;;;;;;;-1.23;77.66;98169.98;1785238;80;25819;-85
2020/12/19 03:16:19;;;;;;;48.20;21.60;;;;;;;-1.23;77.68;98170.83;1785321;80;25790;-85
2020/12/19 03:18:46;;;;;;;34.75;19.75;;;;;;;-1.19;77.69;98166.95;1771656;80;27557;-85
2020/12/19 03:21:14;;;;;;;37.63;19.17;;;;;;;-1.18;77.67;98168.64;1777290;80;25778;-86
2020/12/19 03:23:42;;;;;;;41.53;19.20;;;;;;;-1.12;77.68;98169.98;1785122;80;25743;-85
2020/12/19 03:26:09;;;;;;;34.45;17.23;;;;;;;-1.13;77.55;98166.48;1785130;80;25915;-85
2020/12/19 03:28:37;;;;;;;36.93;18.80;;;;;;;-1.20;77.43;98164.42;1785095;80;25783;-86
2020/12/19 03:31:04;;;;;;;44.30;20.52;;;;;;;-1.21;77.44;98164.90;1785179;80;28458;-85
2020/12/19 03:33:32;;;;;;;47.38;21.48;;;;;;;-1.21;77.44;98160.92;1785072;80;25761;-86
2020/12/19 03:35:59;;;;;;;41.53;21.60;;;;;;;-1.20;77.44;98164.42;1785107;80;25845;-84
2020/12/19 03:38:26;;;;;;;47.83;23.67;;;;;;;-1.27;77.34;98156.13;1785276;80;26763;-86
2020/12/19 03:40:53;;;;;;;52.55;23.77;;;;;;;-1.32;77.39;98162.24;1785291;80;25813;-85
2020/12/19 03:43:21;;;;;;;53.90;24.80;;;;;;;-1.35;77.46;98159.02;1785150;80;28852;-85
2020/12/19 03:45:48;;;;;;;44.18;22.27;;;;;;;-1.36;77.58;98158.17;1784995;80;25806;-86
2020/12/19 03:48:15;;;;;;;47.98;22.93;;;;;;;-1.40;77.55;98158.03;1785097;80;25356;-86
2020/12/19 03:50:43;;;;;;;48.08;24.87;;;;;;;-1.40;77.66;98155.39;1782402;80;26701;-85
2020/12/19 03:53:10;;;;;;;46.00;23.73;;;;;;;-1.36;77.72;98147.58;1766500;80;25867;-85
2020/12/19 03:55:38;;;;;;;44.63;21.77;;;;;;;-1.35;77.72;98154.56;1783601;80;28456;-86
2020/12/19 03:58:05;;;;;;;41.48;22.58;;;;;;;-1.40;77.74;98147.44;1785317;80;25829;-85
2020/12/19 04:00:33;;;;;;;45.25;22.93;;;;;;;-1.43;77.67;98148.15;1785299;80;25892;-86
2020/12/19 04:03:00;;;;;;;47.40;22.75;;;;;;;-1.45;77.64;98144.32;1785122;80;26872;-86
2020/12/19 04:05:27;;;;;;;45.43;21.95;;;;;;;-1.46;77.69;98141.31;1769331;80;25765;-85
2020/12/19 04:07:55;;;;;;;40.48;21.23;;;;;;;-1.48;77.71;98140.58;1775897;80;26712;-86
2020/12/19 04:10:22;;;;;;;45.55;21.12;;;;;;;-1.44;77.79;98138.03;1767509;80;26126;-85
2020/12/19 04:12:49;;;;;;;45.23;22.13;;;;;;;-1.46;77.75;98132.05;1775371;80;25863;-85
2020/12/19 04:15:22;;;;;;;46.28;21.12;;;;;;;-1.48;77.67;98133.96;1739224;81;26891;-85
2020/12/19 04:17:46;;;;;;;43.38;20.62;;;;;;;-1.50;77.67;98131.91;1738911;81;25830;-85
2020/12/19 04:20:14;;;;;;;49.90;20.75;;;;;;;-1.54;77.83;98129.97;1757122;81;28541;-85
2020/12/19 04:22:41;;;;;;;49.75;23.35;;;;;;;-1.53;78.08;98120.22;1726496;81;25704;-85
2020/12/19 04:25:09;;;;;;;51.95;23.10;;;;;;;-1.46;78.51;98120.13;1766395;81;25714;-86
2020/12/19 04:27:39;;;;;;;53.55;23.00;;;;;;;-1.38;78.51;98116.39;1753722;81;26833;-85
2020/12/19 04:30:09;;;;;;;59.25;23.70;;;;;;;-1.38;78.38;98116.39;1732679;81;25981;-86
2020/12/19 04:32:38;;;;;;;66.60;26.02;;;;;;;-1.39;78.23;98116.02;1760600;81;28443;-87
2020/12/19 04:35:06;;;;;;;61.98;25.90;;;;;;;-1.42;78.18;98110.11;1731674;81;26050;-85
2020/12/19 04:37:34;;;;;;;66.85;26.80;;;;;;;-1.46;78.27;98109.53;1730752;81;26410;-85
2020/12/19 04:40:01;;;;;;;72.62;27.80;;;;;;;-1.49;78.32;98104.47;1732698;81;26825;-85
2020/12/19 04:42:29;;;;;;;62.50;26.42;;;;;;;-1.47;78.60;98096.77;1740179;81;25734;-86
2020/12/19 04:44:57;;;;;;;56.10;25.30;;;;;;;-1.42;78.71;98096.39;1741632;81;28470;-86
2020/12/19 04:47:24;;;;;;;56.73;25.25;;;;;;;-1.35;78.88;98094.97;1759639;81;25823;-86
2020/12/19 04:49:53;;;;;;;55.63;24.07;;;;;;;-1.27;78.90;98092.55;1745136;80;26422;-86
2020/12/19 04:52:20;;;;;;;54.58;22.55;;;;;;;-1.17;78.89;98096.16;1770020;81;25827;-85
2020/12/19 04:54:47;;;;;;;55.10;22.25;;;;;;;-1.19;78.71;98090.13;1770004;80;25549;-85
2020/12/19 04:57:19;;;;;;;45.20;21.30;;;;;;;-1.23;78.61;98095.33;1769983;81;27495;-85
2020/12/19 04:59:48;;;;;;;55.98;23.95;;;;;;;-1.22;78.65;98098.82;1770128;80;25862;-85
2020/12/19 05:02:16;;;;;;;55.80;24.25;;;;;;;-1.27;78.66;98095.20;1769965;80;25344;-86
2020/12/19 05:04:44;;;;;;;59.90;27.50;;;;;;;-1.27;78.67;98100.50;1758875;81;25891;-85
2020/12/19 05:07:15;;;;;;;67.55;29.60;;;;;;;-1.30;78.66;98100.73;1751030;81;25754;-85
2020/12/19 05:09:45;;;;;;;67.40;27.67;;;;;;;-1.35;78.76;98096.30;1763647;81;28452;-85
2020/12/19 05:12:14;;;;;;;79.45;32.50;;;;;;;-1.38;78.80;98100.50;1736090;79;25698;-86
2020/12/19 05:14:41;;;;;;;67.87;28.65;;;;;;;-1.40;78.88;98096.28;1776897;80;25809;-86
2020/12/19 05:17:09;;;;;;;66.22;29.55;;;;;;;-1.37;79.02;98094.72;1780704;80;26738;-85
2020/12/19 05:19:36;;;;;;;72.55;30.45;;;;;;;-1.27;79.26;98099.66;1780637;80;25904;-86
2020/12/19 05:22:04;;;;;;;75.20;32.23;;;;;;;-1.20;79.19;98091.09;1780599;80;27497;-86
2020/12/19 05:24:35;;;;;;;69.65;29.55;;;;;;;-1.23;78.89;98088.70;1780453;80;26028;-85
2020/12/19 05:27:09;;;;;;;67.65;29.77;;;;;;;-1.32;78.71;98091.21;1759916;80;25739;-86
2020/12/19 05:29:37;;;;;;;53.50;27.30;;;;;;;-1.39;78.70;98093.52;1780468;80;26046;-85
2020/12/19 05:32:05;;;;;;;67.15;30.70;;;;;;;-1.41;78.70;98091.46;1780590;80;25748;-85
2020/12/19 05:34:33;;;;;;;65.47;27.80;;;;;;;-1.44;78.67;98093.02;1780637;79;28353;-86
2020/12/19 05:37:01;;;;;;;72.00;30.35;;;;;;;-1.51;78.71;98094.47;1780578;80;25809;-86
2020/12/19 05:39:29;;;;;;;77.30;32.03;;;;;;;-1.49;78.79;98088.58;1780849;80;25643;-86
2020/12/19 05:41:57;;;;;;;71.42;29.40;;;;;;;-1.51;78.83;98089.17;1748176;80;25830;-86
2020/12/19 05:44:24;;;;;;;75.78;30.90;;;;;;;-1.51;78.86;98089.17;1738899;81;25810;-87
2020/12/19 05:46:52;;;;;;;85.15;34.20;;;;;;;-1.50;78.81;98094.84;1769039;80;27489;-87
2020/12/19 05:49:21;;;;;;;80.90;35.75;;;;;;;-1.49;78.70;98093.88;1780675;80;26058;-85
2020/12/19 05:51:50;;;;;;;74.22;31.65;;;;;;;-1.46;78.74;98091.00;1750984;80;26047;-85
2020/12/19 05:54:20;;;;;;;77.15;32.88;;;;;;;-1.48;78.57;98095.09;1744526;80;25817;-84
2020/12/19 05:56:48;;;;;;;79.15;33.58;;;;;;;-1.55;78.56;98091.69;1749446;80;25872;-86
2020/12/19 05:59:18;;;;;;;80.60;33.35;;;;;;;-1.56;78.62;98101.92;1743622;80;27482;-86
2020/12/19 06:01:50;;;;;;;78.15;34.88;;;;;;;-1.53;78.63;98099.88;1756151;80;25843;-85
2020/12/19 06:04:18;;;;;;;95.62;38.40;;;;;;;-1.52;78.54;98108.67;1765053;80;35015;-86
2020/12/19 06:06:48;;;;;;;89.50;41.08;;;;;;;-1.52;78.51;98099.41;1738591;80;25848;-85
2020/12/19 06:09:16;;;;;;;84.77;37.95;;;;;;;-1.50;78.49;98101.45;1763529;80;25760;-85
2020/12/19 06:12:00;;;;;;;79.25;36.05;;;;;;;-1.48;78.48;98106.16;1777692;80;29032;-85
2020/12/19 06:14:31;;;;;;;98.25;40.52;;;;;;;-1.52;78.42;98100.25;1755593;80;25810;-86
2020/12/19 06:17:13;;;;;;;76.15;33.38;;;;;;;-1.58;78.41;98107.36;1755271;80;25754;-85
2020/12/19 06:19:43;;;;;;;92.02;43.28;;;;;;;-1.65;78.54;98102.16;1777051;80;25829;-86
2020/12/19 06:22:11;;;;;;;96.12;46.05;;;;;;;-1.66;78.60;98104.44;1742667;80;25896;-86
2020/12/19 06:24:47;;;;;;;94.00;45.17;;;;;;;-1.67;78.57;98101.42;1760937;80;27504;-86
2020/12/19 06:27:29;;;;;;;107.15;49.60;;;;;;;-1.73;78.47;98100.59;1747048;81;25813;-84
2020/12/19 06:29:56;;;;;;;67.27;32.70;;;;;;;-1.78;78.53;98109.83;1749375;81;26299;-86
2020/12/19 06:32:30;;;;;;;104.75;47.38;;;;;;;-1.76;78.56;98111.88;1746878;82;25837;-85
2020/12/19 06:35:11;;;;;;;103.95;46.98;;;;;;;-1.72;78.55;98113.34;1726315;81;26397;-85
2020/12/19 06:37:44;;;;;;;95.53;43.75;;;;;;;-1.68;78.56;98114.30;1723545;82;28304;-86
2020/12/19 06:40:21;;;;;;;80.15;35.70;;;;;;;-1.71;78.52;98126.47;1746433;81;26217;-86
2020/12/19 06:43:10;;;;;;;78.07;35.48;;;;;;;-1.77;78.64;98125.59;1737087;81;25984;-86
2020/12/19 06:45:38;;;;;;;83.97;37.70;;;;;;;-1.72;78.79;98131.88;1740672;81;26326;-85
2020/12/19 06:48:34;;;;;;;86.55;40.10;;;;;;;-1.68;78.79;98126.20;1743414;81;25800;-85
2020/12/19 06:51:03;;;;;;;68.85;32.63;;;;;;;-1.67;78.61;98129.22;1746298;81;27438;-85
2020/12/19 06:53:33;;;;;;;63.23;30.10;;;;;;;-1.71;78.57;98133.09;1743350;81;25378;-85
2020/12/19 06:56:00;;;;;;;56.08;27.58;;;;;;;-1.69;78.59;98140.91;1746601;81;25684;-84
2020/12/19 06:58:35;;;;;;;73.55;33.00;;;;;;;-1.69;78.57;98139.08;1745624;81;25895;-84
2020/12/19 07:01:26;;;;;;;85.72;38.10;;;;;;;-1.71;78.63;98137.53;1740460;81;25325;-86
2020/12/19 07:03:55;;;;;;;98.67;42.27;;;;;;;-1.72;78.63;98147.76;1705660;82;46911;-85
2020/12/19 07:06:22;;;;;;;101.20;44.83;;;;;;;-1.71;78.65;98152.09;1712671;82;25773;-85
2020/12/19 07:08:50;;;;;;;90.30;42.48;;;;;;;-1.65;78.60;98158.23;1754401;80;25734;-85
2020/12/19 07:11:41;;;;;;;102.47;46.63;;;;;;;-1.61;78.56;98142.48;1770998;80;26714;-85
2020/12/19 07:14:16;;;;;;;111.08;54.93;;;;;;;-1.57;78.52;98145.27;1780371;80;25760;-84
2020/12/19 07:16:52;;;;;;;120.53;55.38;;;;;;;-1.58;78.42;98147.07;1776971;80;27546;-85
2020/12/19 07:19:28;;;;;;;140.28;62.03;;;;;;;-1.56;78.40;98146.45;1776928;80;25651;-85
2020/12/19 07:21:58;;;;;;;154.25;68.55;;;;;;;-1.53;78.38;98148.02;1777001;80;25318;-84
2020/12/19 07:24:26;;;;;;;153.42;67.37;;;;;;;-1.53;78.36;98137.44;1776951;80;25771;-84
2020/12/19 07:26:53;;;;;;;146.75;66.80;;;;;;;-1.51;78.38;98142.98;1777034;80;25778;-85
2020/12/19 07:29:24;;;;;;;145.12;68.35;;;;;;;-1.48;78.36;98151.17;1780218;80;28502;-86
2020/12/19 07:32:01;;;;;;;146.10;65.35;;;;;;;-1.47;78.34;98156.83;1777467;80;26427;-84
2020/12/19 07:34:30;;;;;;;144.30;66.02;;;;;;;-1.48;78.36;98144.55;1777051;80;25813;-86
2020/12/19 07:36:57;;;;;;;151.95;66.55;;;;;;;-1.49;78.30;98140.22;1777034;80;27198;-86
2020/12/19 07:39:25;;;;;;;156.50;63.90;;;;;;;-1.56;78.23;98154.87;1777077;80;26364;-87
2020/12/19 07:42:09;;;;;;;140.25;62.50;;;;;;;-1.62;78.34;98155.35;1750037;80;27500;-87
2020/12/19 07:44:39;;;;;;;155.30;67.65;;;;;;;-1.57;78.53;98151.89;1757583;80;26106;-86
2020/12/19 07:47:13;;;;;;;159.45;66.50;;;;;;;-1.56;78.58;98153.06;1776944;80;25771;-87
2020/12/19 07:49:49;;;;;;;171.65;69.62;;;;;;;-1.55;78.59;98153.43;1767236;80;26724;-86
2020/12/19 07:52:22;;;;;;;188.00;73.15;;;;;;;-1.57;78.54;98144.76;1776973;80;25767;-86
2020/12/19 07:55:01;;;;;;;215.60;86.67;;;;;;;-1.47;78.68;98144.92;1777097;80;27505;-84
2020/12/19 07:57:32;;;;;;;201.30;83.07;;;;;;;-1.37;78.71;98144.56;1776977;80;25439;-86
2020/12/19 08:00:03;;;;;;;191.47;80.85;;;;;;;-1.25;78.74;98140.11;1760315;80;25344;-87
2020/12/19 08:02:30;;;;;;;178.95;77.25;;;;;;;-1.16;78.71;98150.83;1766137;80;26329;-84
2020/12/19 08:04:59;;;;;;;172.78;74.27;;;;;;;-1.09;78.67;98150.69;1777199;80;25879;-83
2020/12/19 08:07:29;;;;;;;159.65;74.42;;;;;;;-1.00;78.67;98150.47;1777176;80;27521;-83
2020/12/19 08:10:07;;;;;;;182.85;81.08;;;;;;;-0.90;78.62;98147.45;1755468;80;25749;-84
2020/12/19 08:12:35;;;;;;;168.65;76.05;;;;;;;-0.78;78.60;98149.59;1748215;80;25786;-85
2020/12/19 08:15:19;;;;;;;178.35;80.22;;;;;;;-0.67;78.55;98142.11;1776926;80;25833;-84
2020/12/19 08:17:57;;;;;;;157.50;80.65;;;;;;;-0.55;78.54;98143.29;1777027;80;25802;-85
2020/12/19 08:20:35;;;;;;;136.95;69.72;;;;;;;-0.48;78.43;98143.14;1777072;80;27704;-85
2020/12/19 08:23:08;;;;;;;121.57;60.85;;;;;;;-0.38;78.41;98145.42;1776791;80;26154;-86
2020/12/19 08:25:37;;;;;;;114.85;54.15;;;;;;;-0.28;78.37;98147.31;1777116;80;25870;-87
2020/12/19 08:28:05;;;;;;;124.60;54.40;;;;;;;-0.15;78.39;98146.67;1774460;80;25872;-86
2020/12/19 08:30:34;;;;;;;112.03;52.25;;;;;;;0.00;78.33;98144.09;1751164;80;25798;-86
2020/12/19 08:33:06;;;;;;;110.05;50.12;;;;;;;0.11;78.20;98142.70;1776755;80;26412;-86
2020/12/19 08:35:46;;;;;;;110.80;51.83;;;;;;;0.19;78.05;98144.22;1776767;80;25818;-84
2020/12/19 08:38:23;;;;;;;99.75;47.53;;;;;;;0.28;77.97;98144.77;1753801;80;25721;-83
2020/12/19 08:40:55;;;;;;;101.22;45.92;;;;;;;0.44;77.96;98150.12;1773957;80;27233;-83
2020/12/19 08:43:32;;;;;;;63.60;32.90;;;;;;;0.61;77.81;98149.50;1753724;80;25783;-85
2020/12/19 08:46:12;;;;;;;82.75;37.58;;;;;;;0.78;77.79;98151.57;1774813;80;27498;-84
2020/12/19 08:48:42;;;;;;;83.45;38.08;;;;;;;1.06;77.76;98150.03;1776975;80;26289;-84
2020/12/19 08:51:15;;;;;;;76.42;38.83;;;;;;;1.32;77.59;98151.73;1776955;80;25703;-84
2020/12/19 08:53:42;;;;;;;71.45;38.65;;;;;;;1.57;77.40;98144.55;1777190;80;25930;-84
2020/12/19 08:56:17;;;;;;;73.17;39.67;;;;;;;1.80;77.17;98146.02;1777031;80;25762;-84
2020/12/19 08:58:53;;;;;;;77.03;40.38;;;;;;;1.97;76.85;98137.81;1776490;80;27512;-85
2020/12/19 09:01:21;;;;;;;76.85;40.12;;;;;;;2.19;76.75;98138.02;1776941;80;25776;-84
2020/12/19 09:03:49;;;;;;;84.13;41.68;;;;;;;2.37;76.51;98133.67;1753068;80;25703;-84
2020/12/19 09:06:17;;;;;;;77.47;41.30;;;;;;;2.46;76.24;98126.64;1772351;80;26562;-85
2020/12/19 09:08:47;;;;;;;89.55;44.53;;;;;;;2.60;76.24;98121.35;1777118;80;25787;-85
2020/12/19 09:11:28;;;;;;;81.35;43.33;;;;;;;2.74;76.16;98123.56;1744734;82;28359;-84
2020/12/19 09:14:10;;;;;;;78.57;41.58;;;;;;;2.82;75.87;98121.00;1697149;83;26877;-86
2020/12/19 09:16:53;;;;;;;76.02;39.18;;;;;;;2.94;75.87;98118.99;1717517;82;25782;-84
2020/12/19 09:19:21;;;;;;;69.58;38.13;;;;;;;3.09;75.74;98112.20;1720683;82;26683;-83
2020/12/19 09:22:03;;;;;;;64.07;32.25;;;;;;;3.28;75.75;98109.92;1739054;82;25786;-86
2020/12/19 09:24:31;;;;;;;54.30;31.12;;;;;;;3.50;75.57;98110.87;1736182;82;28407;-85
2020/12/19 09:26:59;;;;;;;65.70;33.73;;;;;;;3.74;75.36;98107.12;1704021;82;25722;-86
2020/12/19 09:29:26;;;;;;;73.00;36.63;;;;;;;3.94;75.29;98094.45;1718891;82;25762;-86
2020/12/19 09:31:54;;;;;;;62.45;33.10;;;;;;;4.17;75.12;98094.81;1701740;82;25620;-87
2020/12/19 09:34:21;;;;;;;55.98;30.23;;;;;;;4.40;75.04;98090.66;1701110;82;25742;-87
2020/12/19 09:36:49;;;;;;;56.55;30.80;;;;;;;4.55;74.71;98094.45;1729307;81;28486;-84
2020/12/19 09:39:16;;;;;;;52.55;29.90;;;;;;;4.72;74.48;98084.67;1743476;82;25750;-86
2020/12/19 09:41:44;;;;;;;46.53;24.57;;;;;;;4.96;74.39;98082.63;1718816;81;25754;-89
2020/12/19 09:44:11;;;;;;;48.10;24.87;;;;;;;5.21;74.07;98075.55;1704700;82;26008;-87
2020/12/19 09:46:39;;;;;;;43.33;24.35;;;;;;;5.44;73.75;98070.78;1733531;82;25959;-84
2020/12/19 09:49:06;;;;;;;40.38;22.50;;;;;;;5.68;73.55;98065.14;1713798;82;28459;-85
2020/12/19 09:51:34;;;;;;;41.88;23.10;;;;;;;5.92;73.27;98059.85;1730399;82;26504;-85
2020/12/19 09:54:01;;;;;;;36.30;22.02;;;;;;;6.08;72.92;98060.38;1713855;83;25654;-85
2020/12/19 09:56:29;;;;;;;36.35;20.32;;;;;;;6.28;72.67;98054.19;1725080;82;25842;-85
2020/12/19 09:58:56;;;;;;;34.20;20.00;;;;;;;6.45;72.36;98055.84;1730741;82;26130;-85
2020/12/19 10:01:24;;;;;;;35.30;21.55;;;;;;;6.61;71.94;98062.53;1677927;83;28388;-88
2020/12/19 10:03:51;;;;;;;36.88;21.00;;;;;;;6.77;71.85;98051.73;1695608;83;25877;-88
2020/12/19 10:06:19;;;;;;;37.03;22.05;;;;;;;6.91;71.63;98048.85;1713896;83;25943;-89
2020/12/19 10:08:46;;;;;;;34.95;20.35;;;;;;;7.00;71.28;98050.52;1725111;82;26033;-83
2020/12/19 10:11:13;;;;;;;36.38;20.85;;;;;;;7.09;70.85;98044.61;1713809;82;25841;-85
2020/12/19 10:13:41;;;;;;;35.90;21.17;;;;;;;7.28;70.70;98045.52;1711210;82;27497;-83
2020/12/19 10:16:08;;;;;;;34.25;21.90;;;;;;;7.42;70.46;98046.12;1729288;82;26151;-84
2020/12/19 10:18:36;;;;;;;35.68;20.37;;;;;;;7.59;70.30;98049.06;1729547;82;25860;-85
2020/12/19 10:21:08;;;;;;;33.90;20.62;;;;;;;7.74;69.99;98041.56;1729518;82;25874;-89
2020/12/19 10:23:35;;;;;;;;;;;;;;;7.89;69.73;98041.13;1722402;82;25835;-91
2020/12/19 10:26:03;;;;;;;32.67;19.52;;;;;;;7.96;68.19;98034.05;1718815;82;27616;-87
2020/12/19 10:28:30;;;;;;;39.38;20.88;;;;;;;8.07;69.01;98034.96;1729139;82;25840;-85
2020/12/19 10:30:58;;;;;;;33.58;20.75;;;;;;;8.28;68.69;98028.39;1724748;82;25838;-89
2020/12/19 10:33:26;;;;;;;38.40;22.02;;;;;;;8.56;68.51;98027.83;1723841;82;25979;-88
2020/12/19 10:35:54;;;;;;;54.58;23.83;;;;;;;8.83;68.21;98025.00;1710354;82;25548;-89
2020/12/19 10:38:22;;;;;;;41.53;23.92;;;;;;;9.09;68.02;98016.45;1728575;82;27703;-85
2020/12/19 10:40:49;;;;;;;41.90;22.10;;;;;;;9.30;67.36;98012.47;1729529;82;26723;-88
2020/12/19 10:43:18;;;;;;;80.25;29.18;;;;;;;9.44;66.66;98003.53;1729549;82;25782;-86
2020/12/19 10:45:46;;;;;;;40.75;21.70;;;;;;;9.56;66.43;98001.17;1729733;82;26235;-92
2020/12/19 10:48:14;;;;;;;39.65;22.40;;;;;;;9.68;66.17;98002.34;1709072;82;25717;-88
2020/12/19 10:50:41;;;;;;;35.48;21.85;;;;;;;9.81;65.92;98004.34;1729489;82;27496;-85
2020/12/19 10:53:08;;;;;;;27.32;17.60;;;;;;;9.95;65.74;97994.86;1729566;82;25816;-88
2020/12/19 10:55:38;;;;;;;28.38;16.50;;;;;;;10.03;65.24;97996.57;1729600;82;25827;-90
2020/12/19 10:58:05;;;;;;;22.98;14.70;;;;;;;10.19;65.17;97996.34;1729581;82;26938;-93
2020/12/19 11:00:33;;;;;;;20.05;12.55;;;;;;;10.35;64.71;97998.77;1711662;82;26539;-86
2020/12/19 11:03:00;;;;;;;20.20;12.63;;;;;;;10.45;64.11;98001.96;1720946;82;27490;-89
2020/12/19 11:05:27;;;;;;;17.55;12.55;;;;;;;10.41;63.45;97989.87;1715909;82;25785;-87
2020/12/19 11:07:55;;;;;;;25.27;16.67;;;;;;;10.45;63.44;97992.52;1727176;82;25759;-91
2020/12/19 11:10:22;;;;;;;37.05;21.12;;;;;;;10.65;63.68;97986.41;1720519;82;25732;-87
2020/12/19 11:12:50;;;;;;;36.80;21.37;;;;;;;10.83;63.14;97986.75;1729525;82;26362;-88
2020/12/19 11:15:18;;;;;;;28.27;16.65;;;;;;;10.98;62.76;97984.77;1724159;82;27499;-85
2020/12/19 11:17:46;;;;;;;32.53;17.45;;;;;;;11.14;62.57;97984.92;1709452;83;25800;-91
2020/12/19 11:20:13;;;;;;;27.52;16.35;;;;;;;11.23;62.14;97982.91;1698368;83;25729;-93
2020/12/19 11:22:41;;;;;;;20.80;13.55;;;;;;;11.26;61.88;97981.13;1712789;82;25885;-92
2020/12/19 11:25:08;;;;;;;23.18;14.65;;;;;;;11.18;61.09;97980.28;1714387;83;25794;-89
2020/12/19 11:27:35;;;;;;;21.17;14.18;;;;;;;11.23;61.25;97973.45;1698147;84;27731;-87